Terminal Aerodrome Forecast
Issued by NWS Springfield, MO

Home | Current Version | Previous Version | Graphics & Text | Print | Product List | Glossary On
Versions: 1 2 3 4 5 6 7 8 9 10 11 12 13 14 15 16 17 18 19 20 21 22 23 24 25 26 27 28 29 30 31 32 33
678
FTUS43 KSGF 190420 AAF
TAFSGF
TAF AMD
KSGF 190420Z 1904/1924 16008KT 3SM -DZ BR OVC006
      TEMPO 1904/1906 5SM -DZ BR SCT005 OVC030
     FM190600 15008KT 3SM BR VCSH OVC008
     FM191200 14005KT 1 1/2SM BR OVC003
     FM191600 16006KT 4SM BR OVC007=

USA.gov is the U.S. government's official web portal to all federal, state and local government web resources and services.